createdAt,value
2019-04-04T00:02:22.288Z,98360.91
2019-04-04T00:04:57.758Z,98354.75
2019-04-04T00:07:31.604Z,98340.28
2019-04-04T00:10:05.746Z,98349.90
2019-04-04T00:12:39.748Z,98351.53
2019-04-04T00:15:14.901Z,98352.77
2019-04-04T00:17:48.134Z,98365.79
2019-04-04T00:20:21.262Z,98370.59
2019-04-04T00:22:54.088Z,98377.61
2019-04-04T00:25:26.674Z,98382.20
2019-04-04T00:27:59.470Z,98380.80
2019-04-04T00:30:31.982Z,98384.72
2019-04-04T00:33:04.765Z,98357.48
2019-04-04T00:35:37.578Z,98332.77
2019-04-04T00:38:10.237Z,98332.06
2019-04-04T00:40:43.962Z,98340.58
2019-04-04T00:43:16.949Z,98347.53
2019-04-04T00:45:49.757Z,98334.86
2019-04-04T00:48:22.614Z,98320.04
2019-04-04T00:50:55.581Z,98323.27
2019-04-04T00:53:28.173Z,98347.05
2019-04-04T00:56:00.683Z,98345.97
2019-04-04T00:58:34.726Z,98344.94
2019-04-04T01:01:07.266Z,98365.19
2019-04-04T01:03:39.821Z,98359.27
2019-04-04T01:06:13.622Z,98352.34
2019-04-04T01:08:46.203Z,98346.30
2019-04-04T01:11:20.422Z,98345.75
2019-04-04T01:13:53.783Z,98345.91
2019-04-04T01:16:26.485Z,98345.26
2019-04-04T01:18:59.003Z,98346.14
2019-04-04T01:21:31.754Z,98354.77
2019-04-04T01:24:04.344Z,98353.95
2019-04-04T01:26:36.905Z,98348.84
2019-04-04T01:29:10.899Z,98341.40
2019-04-04T01:31:44.082Z,98339.11
2019-04-04T01:34:18.814Z,98331.63
2019-04-04T01:36:56.423Z,98311.26
2019-04-04T01:39:31.915Z,98308.63
2019-04-04T01:42:07.222Z,98310.06
2019-04-04T01:44:42.293Z,98314.50
2019-04-04T01:47:17.059Z,98309.57
2019-04-04T01:49:51.884Z,98306.95
2019-04-04T01:52:27.860Z,98293.94
2019-04-04T01:55:03.411Z,98284.78
2019-04-04T01:57:38.629Z,98296.72
2019-04-04T02:00:15.734Z,98290.91
2019-04-04T02:02:51.605Z,98286.91
2019-04-04T02:05:26.829Z,98299.98
2019-04-04T02:08:00.921Z,98298.34
2019-04-04T02:10:35.335Z,98290.32
2019-04-04T02:13:09.770Z,98295.89
2019-04-04T02:15:44.749Z,98288.83
2019-04-04T02:18:17.805Z,98281.49
2019-04-04T02:20:50.374Z,98280.25
2019-04-04T02:23:22.985Z,98275.72
2019-04-04T02:25:57.003Z,98266.48
2019-04-04T02:28:45.513Z,98252.85
2019-04-04T02:31:21.001Z,98247.46
2019-04-04T02:33:54.789Z,98250.91
2019-04-04T02:36:29.231Z,98256.81
2019-04-04T02:39:10.906Z,98249.25
2019-04-04T02:41:47.535Z,98242.16
2019-04-04T02:44:24.727Z,98246.42
2019-04-04T02:47:09.756Z,98249.57
2019-04-04T02:49:44.694Z,98251.12
2019-04-04T02:52:18.667Z,98243.98
2019-04-04T02:54:51.665Z,98254.19
2019-04-04T02:57:24.627Z,98262.59
2019-04-04T02:59:57.579Z,98266.57
2019-04-04T03:02:30.716Z,98270.55
2019-04-04T03:05:03.977Z,98275.08
2019-04-04T03:07:36.708Z,98277.98
2019-04-04T03:10:10.053Z,98276.67
2019-04-04T03:12:45.432Z,98273.61
2019-04-04T03:15:18.523Z,98266.28
2019-04-04T03:17:53.649Z,98255.00
2019-04-04T03:20:29.683Z,98249.53
2019-04-04T03:23:02.744Z,98242.33
2019-04-04T03:25:35.791Z,98235.70
2019-04-04T03:28:08.477Z,98250.50
2019-04-04T03:30:41.552Z,98252.86
2019-04-04T03:33:14.559Z,98254.60
2019-04-04T03:35:47.339Z,98255.08
2019-04-04T03:38:19.918Z,98253.05
2019-04-04T03:40:57.495Z,98252.06
2019-04-04T03:43:31.187Z,98261.22
2019-04-04T03:46:03.832Z,98272.84
2019-04-04T03:48:40.359Z,98280.90
2019-04-04T03:51:15.405Z,98279.60
2019-04-04T03:53:51.045Z,98270.53
2019-04-04T03:56:23.815Z,98255.94
2019-04-04T03:58:59.745Z,98255.25
2019-04-04T04:01:32.770Z,98256.16
2019-04-04T04:04:05.670Z,98257.84
2019-04-04T04:06:41.277Z,98245.63
2019-04-04T04:09:14.929Z,98245.16
2019-04-04T04:11:48.696Z,98246.50
2019-04-04T04:14:21.995Z,98248.05
2019-04-04T04:16:55.433Z,98250.38
2019-04-04T04:19:30.854Z,98251.23
2019-04-04T04:22:04.923Z,98248.20
2019-04-04T04:24:37.550Z,98241.84
2019-04-04T04:27:15.573Z,98238.57
2019-04-04T04:29:50.353Z,98233.79
2019-04-04T04:32:22.922Z,98227.66
2019-04-04T04:34:55.876Z,98219.63
2019-04-04T04:37:28.527Z,98231.02
2019-04-04T04:40:01.454Z,98231.78
2019-04-04T04:42:36.461Z,98228.08
2019-04-04T04:45:12.164Z,98228.90
2019-04-04T04:47:45.247Z,98222.52
2019-04-04T04:50:18.363Z,98219.15
2019-04-04T04:52:53.054Z,98218.47
2019-04-04T04:55:27.109Z,98222.89
2019-04-04T04:58:03.830Z,98227.47
2019-04-04T05:00:39.228Z,98230.06
2019-04-04T05:03:14.154Z,98231.03
2019-04-04T05:05:47.327Z,98232.50
2019-04-04T05:08:19.734Z,98227.02
2019-04-04T05:10:53.865Z,98235.18
2019-04-04T05:13:28.820Z,98236.41
2019-04-04T05:16:08.905Z,98235.77
2019-04-04T05:18:47.489Z,98247.00
2019-04-04T05:21:25.412Z,98250.30
2019-04-04T05:24:00.151Z,98258.11
2019-04-04T05:26:38.503Z,98266.68
2019-04-04T05:29:13.981Z,98259.63
2019-04-04T05:31:49.871Z,98253.34
2019-04-04T05:34:24.149Z,98270.65
2019-04-04T05:36:58.329Z,98271.09
2019-04-04T05:39:31.521Z,98260.00
2019-04-04T05:42:04.230Z,98257.94
2019-04-04T05:44:41.232Z,98265.39
2019-04-04T05:47:14.444Z,98275.06
2019-04-04T05:49:46.149Z,98266.43
2019-04-04T05:52:19.771Z,98257.92
2019-04-04T05:54:52.306Z,98244.16
2019-04-04T05:57:25.646Z,98250.09
2019-04-04T05:59:59.034Z,98256.26
2019-04-04T06:02:32.973Z,98253.23
2019-04-04T06:05:06.641Z,98255.67
2019-04-04T06:07:42.425Z,98265.52
2019-04-04T06:10:18.120Z,98266.67
2019-04-04T06:12:54.394Z,98277.87
2019-04-04T06:15:31.853Z,98279.66
2019-04-04T06:18:04.784Z,98289.08
2019-04-04T06:20:37.338Z,98294.73
2019-04-04T06:23:09.975Z,98292.86
2019-04-04T06:25:43.052Z,98301.50
2019-04-04T06:28:15.767Z,98305.12
2019-04-04T06:30:48.279Z,98293.59
2019-04-04T06:33:21.518Z,98292.33
2019-04-04T06:35:54.601Z,98293.20
2019-04-04T06:38:27.510Z,98293.81
2019-04-04T06:41:00.834Z,98293.98
2019-04-04T06:43:34.154Z,98292.48
2019-04-04T06:46:06.956Z,98295.22
2019-04-04T06:48:39.795Z,98301.58
2019-04-04T06:51:14.344Z,98304.66
2019-04-04T06:53:47.710Z,98302.95
2019-04-04T06:56:22.633Z,98298.45
2019-04-04T06:58:55.299Z,98304.25
2019-04-04T07:01:27.861Z,98302.34
2019-04-04T07:04:00.823Z,98293.02
2019-04-04T07:06:33.640Z,98295.03
2019-04-04T07:09:08.907Z,98298.42
2019-04-04T07:11:46.382Z,98300.79
2019-04-04T07:14:19.999Z,98301.02
2019-04-04T07:16:53.536Z,98297.69
2019-04-04T07:19:26.859Z,98302.00
2019-04-04T07:22:00.150Z,98311.20
2019-04-04T07:24:33.310Z,98313.76
2019-04-04T07:27:05.966Z,98310.01
2019-04-04T07:29:39.076Z,98308.46
2019-04-04T07:32:13.299Z,98307.86
2019-04-04T07:34:46.410Z,98307.63
2019-04-04T07:37:22.162Z,98315.06
2019-04-04T07:39:56.318Z,98314.91
2019-04-04T07:42:28.979Z,98317.14
2019-04-04T07:45:05.035Z,98322.03
2019-04-04T07:47:37.554Z,98323.03
2019-04-04T07:50:10.500Z,98329.06
2019-04-04T07:52:43.768Z,98328.80
2019-04-04T07:55:17.358Z,98331.03
2019-04-04T07:57:51.239Z,98327.77
2019-04-04T08:00:29.491Z,98328.97
2019-04-04T08:03:04.762Z,98331.56
2019-04-04T08:05:39.082Z,98331.57
2019-04-04T08:08:19.157Z,98323.52
2019-04-04T08:10:57.344Z,98323.14
2019-04-04T08:13:31.274Z,98329.08
2019-04-04T08:16:07.449Z,98337.86
2019-04-04T08:18:40.715Z,98329.24
2019-04-04T08:21:22.686Z,98330.05
2019-04-04T08:23:57.377Z,98333.38
2019-04-04T08:26:31.835Z,98332.52
2019-04-04T08:29:13.944Z,98325.19
2019-04-04T08:31:47.469Z,98320.36
2019-04-04T08:34:20.921Z,98313.85
2019-04-04T08:36:55.040Z,98316.67
2019-04-04T08:39:30.720Z,98330.73
2019-04-04T08:42:05.201Z,98333.86
2019-04-04T08:44:42.631Z,98336.16
2019-04-04T08:47:17.462Z,98338.75
2019-04-04T08:49:52.212Z,98326.84
2019-04-04T08:52:26.853Z,98325.66
2019-04-04T08:55:00.259Z,98330.94
2019-04-04T08:57:32.914Z,98335.83
2019-04-04T09:00:09.397Z,98330.72
2019-04-04T09:02:44.077Z,98333.91
2019-04-04T09:05:17.878Z,98338.59
2019-04-04T09:07:53.851Z,98338.48
2019-04-04T09:10:28.359Z,98339.53
2019-04-04T09:13:00.846Z,98335.18
2019-04-04T09:15:33.842Z,98336.27
2019-04-04T09:18:07.250Z,98346.52
2019-04-04T09:20:39.858Z,98351.28
2019-04-04T09:23:13.807Z,98353.17
2019-04-04T09:25:47.428Z,98347.03
2019-04-04T09:28:21.407Z,98346.56
2019-04-04T09:30:56.191Z,98352.88
2019-04-04T09:33:29.458Z,98355.27
2019-04-04T09:36:07.989Z,98349.01
2019-04-04T09:38:41.542Z,98345.55
2019-04-04T09:41:14.711Z,98342.30
2019-04-04T09:43:47.736Z,98337.36
2019-04-04T09:46:22.200Z,98341.63
2019-04-04T09:48:55.669Z,98350.67
2019-04-04T09:51:30.085Z,98354.79
2019-04-04T09:54:02.749Z,98356.11
2019-04-04T09:56:35.539Z,98362.97
2019-04-04T09:59:09.140Z,98358.74
2019-04-04T10:01:42.764Z,98356.97
2019-04-04T10:04:16.403Z,98354.78
2019-04-04T10:06:49.206Z,98356.70
2019-04-04T10:09:21.852Z,98361.27
2019-04-04T10:11:57.237Z,98354.84
2019-04-04T10:14:57.450Z,98349.67
2019-04-04T10:17:32.150Z,98349.77
2019-04-04T10:20:06.307Z,98353.73
2019-04-04T10:22:40.847Z,98353.94
2019-04-04T10:25:15.497Z,98347.81
2019-04-04T10:27:50.381Z,98341.30
2019-04-04T10:30:26.706Z,98336.88
2019-04-04T10:32:59.966Z,98340.50
2019-04-04T10:35:34.950Z,98347.61
2019-04-04T10:38:09.457Z,98351.56
2019-04-04T10:40:43.749Z,98334.20
2019-04-04T10:43:17.783Z,98318.14
2019-04-04T10:45:55.077Z,98303.91
2019-04-04T10:48:30.894Z,98309.91
2019-04-04T10:51:05.183Z,98318.47
2019-04-04T10:53:46.287Z,98322.64
2019-04-04T10:56:18.967Z,98323.36
2019-04-04T10:58:52.597Z,98335.39
2019-04-04T11:01:27.450Z,98336.33
2019-04-04T11:04:03.615Z,98336.16
2019-04-04T11:06:40.082Z,98335.89
2019-04-04T11:09:13.208Z,98337.97
2019-04-04T11:11:46.394Z,98349.34
2019-04-04T11:14:25.732Z,98359.71
2019-04-04T11:17:03.962Z,98366.89
2019-04-04T11:19:39.093Z,98368.18
2019-04-04T11:22:12.983Z,98373.61
2019-04-04T11:24:45.629Z,98373.87
2019-04-04T11:27:26.549Z,98381.88
2019-04-04T11:30:03.263Z,98379.80
2019-04-04T11:32:39.829Z,98383.20
2019-04-04T11:35:12.596Z,98386.09
2019-04-04T11:37:46.961Z,98383.82
2019-04-04T11:40:20.442Z,98376.99
2019-04-04T11:42:54.126Z,98381.20
2019-04-04T11:45:44.891Z,98381.09
2019-04-04T11:48:20.798Z,98381.76
2019-04-04T11:51:14.535Z,98390.88
2019-04-04T11:53:48.763Z,98388.59
2019-04-04T11:56:21.574Z,98391.50
2019-04-04T11:58:59.947Z,98392.53
2019-04-04T12:01:34.104Z,98394.19
2019-04-04T12:04:08.750Z,98401.73
2019-04-04T12:06:43.537Z,98395.70
2019-04-04T12:09:19.452Z,98398.53
2019-04-04T12:11:52.361Z,98402.48
2019-04-04T12:14:25.536Z,98417.25
2019-04-04T12:17:01.584Z,98428.76
2019-04-04T12:19:37.450Z,98435.19
2019-04-04T12:22:12.218Z,98430.49
2019-04-04T12:24:45.556Z,98418.56
2019-04-04T12:27:18.283Z,98406.54
2019-04-04T12:29:51.771Z,98412.22
2019-04-04T12:32:24.652Z,98431.70
2019-04-04T12:35:00.437Z,98437.02
2019-04-04T12:37:35.223Z,98427.44
2019-04-04T12:40:19.902Z,98416.08
2019-04-04T12:42:56.196Z,98408.72
2019-04-04T12:45:29.346Z,98397.66
2019-04-04T12:48:02.845Z,98395.46
2019-04-04T12:50:37.859Z,98398.55
2019-04-04T12:53:13.042Z,98396.64
2019-04-04T12:55:47.329Z,98398.52
2019-04-04T12:58:22.471Z,98395.16
2019-04-04T13:00:57.263Z,98412.62
2019-04-04T13:03:40.018Z,98423.05
2019-04-04T13:06:14.572Z,98415.22
2019-04-04T13:08:49.439Z,98401.63
2019-04-04T13:11:24.532Z,98399.42
2019-04-04T13:13:58.773Z,98414.97
2019-04-04T13:16:35.504Z,98435.11
2019-04-04T13:19:10.568Z,98433.47
2019-04-04T13:21:45.345Z,98439.75
2019-04-04T13:24:21.210Z,98450.45
2019-04-04T13:26:55.234Z,98459.70
2019-04-04T13:29:28.967Z,98460.44
2019-04-04T13:32:01.649Z,98463.26
2019-04-04T13:34:42.379Z,98472.04
2019-04-04T13:37:19.734Z,98473.05
2019-04-04T13:39:53.786Z,98477.58
2019-04-04T13:42:28.647Z,98475.97
2019-04-04T13:45:05.191Z,98468.69
2019-04-04T13:47:40.412Z,98477.61
2019-04-04T13:50:15.005Z,98480.16
2019-04-04T13:52:55.192Z,98491.05
2019-04-04T13:55:28.735Z,98497.09
2019-04-04T13:58:10.823Z,98488.89
2019-04-04T14:00:45.271Z,98486.20
2019-04-04T14:03:20.864Z,98484.66
2019-04-04T14:05:56.435Z,98490.92
2019-04-04T14:08:30.802Z,98503.17
2019-04-04T14:11:04.378Z,98506.23
2019-04-04T14:13:42.098Z,98519.49
2019-04-04T14:16:17.363Z,98521.74
2019-04-04T14:18:51.653Z,98533.94
2019-04-04T14:21:28.011Z,98545.67
2019-04-04T14:24:12.456Z,98543.62
2019-04-04T14:26:48.591Z,98534.30
2019-04-04T14:29:27.648Z,98531.91
2019-04-04T14:32:00.628Z,98529.61
2019-04-04T14:34:33.348Z,98524.34
2019-04-04T14:37:06.534Z,98516.13
2019-04-04T14:40:16.581Z,98526.80
2019-04-04T14:43:00.903Z,98539.83
2019-04-04T14:45:44.759Z,98539.44
2019-04-04T14:48:33.115Z,98531.13
2019-04-04T14:51:09.945Z,98528.05
2019-04-04T14:53:43.472Z,98525.03
2019-04-04T14:56:25.980Z,98528.38
2019-04-04T14:59:12.624Z,98556.16
2019-04-04T15:01:51.086Z,98563.20
2019-04-04T15:04:24.789Z,98569.24
2019-04-04T15:07:00.972Z,98571.44
2019-04-04T15:09:34.200Z,98567.42
2019-04-04T15:12:11.451Z,98557.96
2019-04-04T15:14:44.041Z,98532.17
2019-04-04T15:17:17.181Z,98527.36
2019-04-04T15:19:49.830Z,98534.78
2019-04-04T15:22:23.540Z,98527.14
2019-04-04T15:24:56.841Z,98527.05
2019-04-04T15:27:30.221Z,98537.86
2019-04-04T15:30:10.427Z,98549.36
2019-04-04T15:32:48.256Z,98565.09
2019-04-04T15:35:21.116Z,98556.40
2019-04-04T15:37:57.332Z,98544.45
2019-04-04T15:40:29.903Z,98538.03
2019-04-04T15:43:03.680Z,98540.73
2019-04-04T15:45:40.135Z,98543.48
2019-04-04T15:48:12.747Z,98556.97
2019-04-04T15:50:45.543Z,98574.82
2019-04-04T15:53:19.348Z,98580.27
2019-04-04T15:55:54.359Z,98588.39
2019-04-04T15:58:28.898Z,98588.89
2019-04-04T16:01:20.192Z,98585.13
2019-04-04T16:03:57.479Z,98588.77
2019-04-04T16:06:31.890Z,98606.94
2019-04-04T16:09:07.167Z,98610.33
2019-04-04T16:11:49.309Z,98611.78
2019-04-04T16:14:23.872Z,98603.89
2019-04-04T16:16:57.619Z,98599.19
2019-04-04T16:19:35.055Z,98594.21
2019-04-04T16:22:08.115Z,98593.52
2019-04-04T16:24:41.542Z,98589.70
2019-04-04T16:27:14.737Z,98585.83
2019-04-04T16:29:49.296Z,98583.47
2019-04-04T16:32:22.614Z,98589.79
2019-04-04T16:34:55.903Z,98575.84
2019-04-04T16:37:29.206Z,98577.38
2019-04-04T16:40:09.384Z,98570.91
2019-04-04T16:42:43.901Z,98555.53
2019-04-04T16:45:19.175Z,98547.77
2019-04-04T16:47:53.116Z,98552.86
2019-04-04T16:50:26.718Z,98572.29
2019-04-04T16:53:02.601Z,98587.56
2019-04-04T16:55:36.095Z,98596.25
2019-04-04T16:58:09.521Z,98606.70
2019-04-04T17:00:43.819Z,98622.89
2019-04-04T17:03:18.691Z,98626.48
2019-04-04T17:05:53.147Z,98627.03
2019-04-04T17:08:25.676Z,98626.48
2019-04-04T17:10:58.495Z,98631.35
2019-04-04T17:13:34.431Z,98632.48
2019-04-04T17:16:21.100Z,98632.39
2019-04-04T17:18:55.682Z,98648.53
2019-04-04T17:21:32.076Z,98653.85
2019-04-04T17:24:06.673Z,98664.97
2019-04-04T17:26:40.318Z,98670.13
2019-04-04T17:29:16.627Z,98664.29
2019-04-04T17:31:49.401Z,98666.83
2019-04-04T17:34:29.649Z,98661.68
2019-04-04T17:37:02.601Z,98671.13
2019-04-04T17:39:35.094Z,98677.31
2019-04-04T17:42:08.431Z,98686.75
2019-04-04T17:44:45.938Z,98686.45
2019-04-04T17:47:23.834Z,98688.11
2019-04-04T17:49:57.448Z,98684.42
2019-04-04T17:52:30.080Z,98689.95
2019-04-04T17:55:05.070Z,98680.75
2019-04-04T17:57:41.059Z,98677.71
2019-04-04T18:00:20.003Z,98670.59
2019-04-04T18:02:52.691Z,98665.22
2019-04-04T18:05:30.786Z,98662.60
2019-04-04T18:08:04.209Z,98662.56
2019-04-04T18:10:38.009Z,98679.41
2019-04-04T18:13:11.120Z,98698.03
2019-04-04T18:15:48.713Z,98702.30
2019-04-04T18:18:22.149Z,98710.36
2019-04-04T18:20:57.510Z,98715.36
2019-04-04T18:23:38.727Z,98723.57
2019-04-04T18:26:13.156Z,98735.37
2019-04-04T18:28:46.363Z,98739.14
2019-04-04T18:31:19.701Z,98748.80
2019-04-04T18:33:52.633Z,98753.62
2019-04-04T18:36:26.950Z,98741.44
2019-04-04T18:39:00.975Z,98732.48
2019-04-04T18:41:34.826Z,98726.92
2019-04-04T18:44:15.398Z,98725.12
2019-04-04T18:46:50.710Z,98741.33
2019-04-04T18:49:28.547Z,98751.95
2019-04-04T18:52:11.939Z,98743.48
2019-04-04T18:54:54.427Z,98741.59
2019-04-04T18:57:29.313Z,98736.75
2019-04-04T19:00:03.649Z,98741.16
2019-04-04T19:02:38.619Z,98744.83
2019-04-04T19:05:14.332Z,98749.45
2019-04-04T19:07:47.603Z,98749.27
2019-04-04T19:10:22.476Z,98749.03
2019-04-04T19:13:05.132Z,98756.80
2019-04-04T19:15:38.773Z,98753.27
2019-04-04T19:18:12.438Z,98748.67
2019-04-04T19:20:46.678Z,98753.02
2019-04-04T19:23:22.433Z,98767.42
2019-04-04T19:26:03.505Z,98761.38
2019-04-04T19:28:39.514Z,98755.96
2019-04-04T19:31:14.371Z,98747.20
2019-04-04T19:33:49.291Z,98746.42
2019-04-04T19:36:23.223Z,98755.23
2019-04-04T19:38:56.661Z,98761.52
2019-04-04T19:41:29.300Z,98761.25
2019-04-04T19:44:02.463Z,98767.94
2019-04-04T19:46:40.046Z,98772.58
2019-04-04T19:49:13.641Z,98766.44
2019-04-04T19:51:54.733Z,98768.77
2019-04-04T19:54:29.281Z,98774.93
2019-04-04T19:57:04.419Z,98776.00
2019-04-04T19:59:37.639Z,98778.53
2019-04-04T20:02:11.547Z,98774.31
2019-04-04T20:04:44.160Z,98771.77
2019-04-04T20:07:18.131Z,98776.48
2019-04-04T20:09:50.800Z,98769.89
2019-04-04T20:12:25.623Z,98764.16
2019-04-04T20:15:00.277Z,98759.64
2019-04-04T20:17:38.152Z,98772.29
2019-04-04T20:20:12.739Z,98771.16
2019-04-04T20:22:45.853Z,98774.00
2019-04-04T20:25:21.140Z,98778.27
2019-04-04T20:27:55.303Z,98787.21
2019-04-04T20:30:39.808Z,98798.30
2019-04-04T20:33:15.288Z,98810.95
2019-04-04T20:35:50.482Z,98806.70
2019-04-04T20:38:23.710Z,98801.27
2019-04-04T20:40:58.226Z,98803.57
2019-04-04T20:43:42.815Z,98809.03
2019-04-04T20:46:18.382Z,98810.89
2019-04-04T20:48:52.130Z,98798.78
2019-04-04T20:51:28.261Z,98796.33
2019-04-04T20:54:01.847Z,98790.82
2019-04-04T20:56:38.260Z,98793.08
2019-04-04T20:59:12.255Z,98799.05
2019-04-04T21:01:44.877Z,98805.72
2019-04-04T21:04:17.398Z,98813.18
2019-04-04T21:06:51.434Z,98817.39
2019-04-04T21:09:25.973Z,98822.14
2019-04-04T21:11:58.664Z,98829.31
2019-04-04T21:14:32.533Z,98836.08
2019-04-04T21:17:05.819Z,98830.78
2019-04-04T21:19:39.035Z,98821.13
2019-04-04T21:22:26.620Z,98817.48
2019-04-04T21:25:03.633Z,98821.91
2019-04-04T21:27:38.351Z,98828.69
2019-04-04T21:30:16.178Z,98840.31
2019-04-04T21:32:48.811Z,98841.52
2019-04-04T21:35:22.141Z,98838.08
2019-04-04T21:37:55.977Z,98825.97
2019-04-04T21:40:30.818Z,98823.61
2019-04-04T21:43:04.312Z,98815.95
2019-04-04T21:45:37.253Z,98819.47
2019-04-04T21:48:09.872Z,98825.40
2019-04-04T21:50:42.960Z,98833.97
2019-04-04T21:53:16.046Z,98828.94
2019-04-04T21:55:53.861Z,98829.83
2019-04-04T21:58:26.490Z,98830.66
2019-04-04T22:00:59.563Z,98833.81
2019-04-04T22:03:32.304Z,98831.25
2019-04-04T22:06:05.519Z,98842.33
2019-04-04T22:08:40.003Z,98840.95
2019-04-04T22:11:12.754Z,98833.97
2019-04-04T22:13:46.757Z,98832.84
2019-04-04T22:16:22.598Z,98838.53
2019-04-04T22:18:57.667Z,98838.29
2019-04-04T22:21:30.626Z,98834.13
2019-04-04T22:24:04.145Z,98839.05
2019-04-04T22:26:40.351Z,98847.61
2019-04-04T22:29:13.694Z,98855.01
2019-04-04T22:31:48.533Z,98852.23
2019-04-04T22:34:21.207Z,98854.77
2019-04-04T22:36:54.627Z,98859.78
2019-04-04T22:39:27.919Z,98854.41
2019-04-04T22:42:00.536Z,98857.48
2019-04-04T22:44:34.986Z,98859.30
2019-04-04T22:47:15.439Z,98868.38
2019-04-04T22:49:48.888Z,98875.78
2019-04-04T22:52:23.071Z,98879.48
2019-04-04T22:54:58.292Z,98885.20
2019-04-04T22:57:30.880Z,98880.80
2019-04-04T23:00:07.864Z,98869.53
2019-04-04T23:02:40.371Z,98867.22
2019-04-04T23:05:13.321Z,98864.26
2019-04-04T23:07:46.597Z,98867.63
2019-04-04T23:10:20.448Z,98870.80
2019-04-04T23:12:54.515Z,98873.19
2019-04-04T23:15:29.228Z,98869.05
2019-04-04T23:18:01.766Z,98867.89
2019-04-04T23:20:37.610Z,98881.45
2019-04-04T23:23:10.046Z,98892.27
2019-04-04T23:25:42.519Z,98884.95
2019-04-04T23:28:15.587Z,98885.00
2019-04-04T23:30:49.597Z,98890.44
2019-04-04T23:33:22.160Z,98884.25
2019-04-04T23:35:55.322Z,98884.64
2019-04-04T23:38:27.888Z,98885.41
2019-04-04T23:41:00.403Z,98888.81
2019-04-04T23:43:33.205Z,98889.77
2019-04-04T23:46:05.814Z,98892.79
2019-04-04T23:48:38.436Z,98887.55
2019-04-04T23:51:11.883Z,98891.92
2019-04-04T23:53:44.404Z,98899.69
2019-04-04T23:56:16.960Z,98901.22
2019-04-04T23:58:51.196Z,98901.44
